< < Back
Terminal Aerodrome Forecast


Current Version              Previous Versions:   1  2  3  4  5  6  7  8  9  

Terminal Aerodrome Forecast

637
FTUS42 KGSP 310903 AAA
TAFCLT
TAF AMD
KCLT 310903Z 3109/0106 00000KT P6SM SKC
     FM311200 17005KT P6SM FEW250
     FM311700 22010G20KT P6SM FEW060
     FM010100 25007KT P6SM SCT060=

Latest METAR

360
SAUS70 KWBC 311700 RRD
MTRCLT
METAR KCLT 311652Z 20014G19KT 10SM CLR 21/M01 A2998 RMK AO2 SLP148
T02111011


USA.gov is the U.S. government's official web portal to all federal, state and local government web resources and services.